X  Schließen METAR Luftfahrt Wetterdaten     EDTY Adolf Würth Airport
Temperatur
15°C Temperatur
12°C Taupunkt
82% Feuchtigkeit



Wind
3 km/h
2 MPS
1 m/s
2 kts



windstill
Nord
Aktuelle Wetterlage

teilweise bewölkt teilweise bewölkt
Luftdruck 1006.77 (hPa) - 29.73 (inHg)
Sichtweite 6 (Meile) - 9.7 (km)
Flughafen
Flughafen Code EDTY

Position : Adolf Würth Airport
Entfernung: 21 (km)

Metar:
EDTY 150050Z AUTO VRB02KT 9999 // FEW072/// BKN092/// BKN120/// 15/12 Q1007

Zeit: 15-06-2024 00:50 CEST